sensor_id;sensor_type;location;lat;lon;timestamp;P1;durP1;ratioP1;P2;durP2;ratioP2
26696;SDS011;14312;52.614;13.496;2022-09-25T00:01:39;3.08;;;2.83;;
26696;SDS011;14312;52.614;13.496;2022-09-25T00:04:25;2.97;;;2.67;;
26696;SDS011;14312;52.614;13.496;2022-09-25T00:07:11;3.03;;;2.78;;
26696;SDS011;14312;52.614;13.496;2022-09-25T00:09:57;3.00;;;2.67;;
26696;SDS011;14312;52.614;13.496;2022-09-25T00:12:43;2.97;;;2.78;;
26696;SDS011;14312;52.614;13.496;2022-09-25T00:15:29;3.28;;;2.97;;
26696;SDS011;14312;52.614;13.496;2022-09-25T00:18:15;3.10;;;2.90;;
26696;SDS011;14312;52.614;13.496;2022-09-25T00:21:01;2.85;;;2.65;;
26696;SDS011;14312;52.614;13.496;2022-09-25T00:23:48;2.95;;;2.72;;
26696;SDS011;14312;52.614;13.496;2022-09-25T00:26:36;2.92;;;2.72;;
26696;SDS011;14312;52.614;13.496;2022-09-25T00:29:23;2.92;;;2.72;;
26696;SDS011;14312;52.614;13.496;2022-09-25T00:32:10;2.50;;;2.30;;
26696;SDS011;14312;52.614;13.496;2022-09-25T00:34:56;2.20;;;2.10;;
26696;SDS011;14312;52.614;13.496;2022-09-25T00:37:42;2.78;;;2.58;;
26696;SDS011;14312;52.614;13.496;2022-09-25T00:40:28;2.70;;;2.50;;
26696;SDS011;14312;52.614;13.496;2022-09-25T00:43:14;2.90;;;2.70;;
26696;SDS011;14312;52.614;13.496;2022-09-25T00:46:00;2.63;;;2.42;;
26696;SDS011;14312;52.614;13.496;2022-09-25T00:48:50;2.70;;;2.50;;
26696;SDS011;14312;52.614;13.496;2022-09-25T00:51:47;2.55;;;2.35;;
26696;SDS011;14312;52.614;13.496;2022-09-25T00:54:39;2.80;;;2.45;;
26696;SDS011;14312;52.614;13.496;2022-09-25T00:57:29;2.30;;;2.20;;
26696;SDS011;14312;52.614;13.496;2022-09-25T01:00:17;2.60;;;2.40;;
26696;SDS011;14312;52.614;13.496;2022-09-25T01:03:03;3.45;;;2.63;;
26696;SDS011;14312;52.614;13.496;2022-09-25T01:05:50;3.08;;;2.80;;
26696;SDS011;14312;52.614;13.496;2022-09-25T01:08:37;2.70;;;2.50;;
26696;SDS011;14312;52.614;13.496;2022-09-25T01:11:24;2.60;;;2.40;;
26696;SDS011;14312;52.614;13.496;2022-09-25T01:14:10;2.90;;;2.70;;
26696;SDS011;14312;52.614;13.496;2022-09-25T01:17:06;2.67;;;2.42;;
26696;SDS011;14312;52.614;13.496;2022-09-25T01:23:43;2.63;;;2.42;;
26696;SDS011;14312;52.614;13.496;2022-09-25T01:42:05;2.25;;;2.05;;
26696;SDS011;14312;52.614;13.496;2022-09-25T01:45:08;2.05;;;1.85;;
26696;SDS011;14312;52.614;13.496;2022-09-25T01:48:01;1.75;;;1.65;;
26696;SDS011;14312;52.614;13.496;2022-09-25T01:51:13;2.03;;;1.88;;
26696;SDS011;14312;52.614;13.496;2022-09-25T01:54:03;2.10;;;1.90;;
26696;SDS011;14312;52.614;13.496;2022-09-25T01:59:58;2.08;;;1.88;;
26696;SDS011;14312;52.614;13.496;2022-09-25T02:02:54;2.83;;;1.95;;
26696;SDS011;14312;52.614;13.496;2022-09-25T02:05:51;2.42;;;2.22;;
26696;SDS011;14312;52.614;13.496;2022-09-25T02:08:42;2.42;;;1.75;;
26696;SDS011;14312;52.614;13.496;2022-09-25T02:11:35;2.35;;;2.15;;
26696;SDS011;14312;52.614;13.496;2022-09-25T02:14:26;2.10;;;1.95;;
26696;SDS011;14312;52.614;13.496;2022-09-25T02:17:16;2.45;;;2.22;;
26696;SDS011;14312;52.614;13.496;2022-09-25T02:20:27;2.55;;;1.95;;
26696;SDS011;14312;52.614;13.496;2022-09-25T02:23:17;2.38;;;2.17;;
26696;SDS011;14312;52.614;13.496;2022-09-25T02:26:08;2.83;;;2.03;;
26696;SDS011;14312;52.614;13.496;2022-09-25T02:29:00;2.08;;;1.98;;
26696;SDS011;14312;52.614;13.496;2022-09-25T02:34:34;2.40;;;2.20;;
26696;SDS011;14312;52.614;13.496;2022-09-25T02:37:21;2.15;;;1.95;;
26696;SDS011;14312;52.614;13.496;2022-09-25T02:40:07;2.22;;;2.10;;
26696;SDS011;14312;52.614;13.496;2022-09-25T02:43:02;2.33;;;2.15;;
26696;SDS011;14312;52.614;13.496;2022-09-25T02:46:12;2.20;;;2.10;;
26696;SDS011;14312;52.614;13.496;2022-09-25T02:49:46;2.40;;;2.20;;
26696;SDS011;14312;52.614;13.496;2022-09-25T02:52:52;2.10;;;1.90;;
26696;SDS011;14312;52.614;13.496;2022-09-25T02:56:11;2.00;;;1.90;;
26696;SDS011;14312;52.614;13.496;2022-09-25T02:59:20;2.63;;;2.42;;
26696;SDS011;14312;52.614;13.496;2022-09-25T03:02:10;2.22;;;2.08;;
26696;SDS011;14312;52.614;13.496;2022-09-25T03:04:57;2.58;;;2.30;;
26696;SDS011;14312;52.614;13.496;2022-09-25T03:07:43;2.00;;;1.90;;
26696;SDS011;14312;52.614;13.496;2022-09-25T03:10:53;2.47;;;2.10;;
26696;SDS011;14312;52.614;13.496;2022-09-25T03:13:39;2.22;;;2.03;;
26696;SDS011;14312;52.614;13.496;2022-09-25T03:19:36;3.25;;;1.85;;
26696;SDS011;14312;52.614;13.496;2022-09-25T03:22:22;2.35;;;2.15;;
26696;SDS011;14312;52.614;13.496;2022-09-25T03:25:08;2.45;;;2.10;;
26696;SDS011;14312;52.614;13.496;2022-09-25T03:27:54;2.95;;;2.13;;
26696;SDS011;14312;52.614;13.496;2022-09-25T03:30:40;2.05;;;1.95;;
26696;SDS011;14312;52.614;13.496;2022-09-25T03:33:31;2.30;;;2.10;;
26696;SDS011;14312;52.614;13.496;2022-09-25T03:36:23;2.53;;;2.15;;
26696;SDS011;14312;52.614;13.496;2022-09-25T03:39:10;2.53;;;2.13;;
26696;SDS011;14312;52.614;13.496;2022-09-25T03:41:56;2.22;;;2.03;;
26696;SDS011;14312;52.614;13.496;2022-09-25T03:44:42;2.22;;;2.03;;
26696;SDS011;14312;52.614;13.496;2022-09-25T03:47:28;2.10;;;2.00;;
26696;SDS011;14312;52.614;13.496;2022-09-25T03:50:15;2.40;;;2.20;;
26696;SDS011;14312;52.614;13.496;2022-09-25T03:53:01;2.10;;;2.00;;
26696;SDS011;14312;52.614;13.496;2022-09-25T03:55:46;3.80;;;2.17;;
26696;SDS011;14312;52.614;13.496;2022-09-25T03:58:33;2.70;;;2.50;;
26696;SDS011;14312;52.614;13.496;2022-09-25T04:01:20;2.65;;;2.35;;
26696;SDS011;14312;52.614;13.496;2022-09-25T04:04:06;2.53;;;2.33;;
26696;SDS011;14312;52.614;13.496;2022-09-25T04:06:52;2.90;;;2.60;;
26696;SDS011;14312;52.614;13.496;2022-09-25T04:09:38;2.88;;;2.67;;
26696;SDS011;14312;52.614;13.496;2022-09-25T04:12:24;2.90;;;2.70;;
26696;SDS011;14312;52.614;13.496;2022-09-25T04:15:09;2.78;;;2.38;;
26696;SDS011;14312;52.614;13.496;2022-09-25T04:17:55;2.38;;;2.20;;
26696;SDS011;14312;52.614;13.496;2022-09-25T04:20:41;2.83;;;2.53;;
26696;SDS011;14312;52.614;13.496;2022-09-25T04:23:27;2.80;;;2.60;;
26696;SDS011;14312;52.614;13.496;2022-09-25T04:26:13;2.70;;;2.50;;
26696;SDS011;14312;52.614;13.496;2022-09-25T04:28:58;2.58;;;2.38;;
26696;SDS011;14312;52.614;13.496;2022-09-25T04:31:48;2.42;;;2.22;;
26696;SDS011;14312;52.614;13.496;2022-09-25T04:34:54;2.45;;;2.25;;
26696;SDS011;14312;52.614;13.496;2022-09-25T04:37:39;2.75;;;2.55;;
26696;SDS011;14312;52.614;13.496;2022-09-25T04:40:26;2.60;;;2.40;;
26696;SDS011;14312;52.614;13.496;2022-09-25T04:43:12;3.05;;;2.78;;
26696;SDS011;14312;52.614;13.496;2022-09-25T04:45:59;2.65;;;2.45;;
26696;SDS011;14312;52.614;13.496;2022-09-25T04:48:52;2.85;;;2.35;;
26696;SDS011;14312;52.614;13.496;2022-09-25T04:51:38;2.47;;;2.28;;
26696;SDS011;14312;52.614;13.496;2022-09-25T04:54:24;2.40;;;2.20;;
26696;SDS011;14312;52.614;13.496;2022-09-25T04:57:13;2.67;;;2.47;;
26696;SDS011;14312;52.614;13.496;2022-09-25T05:00:04;3.40;;;2.30;;
26696;SDS011;14312;52.614;13.496;2022-09-25T05:02:51;3.67;;;2.83;;
26696;SDS011;14312;52.614;13.496;2022-09-25T05:05:37;2.53;;;2.33;;
26696;SDS011;14312;52.614;13.496;2022-09-25T05:08:23;3.00;;;2.70;;
26696;SDS011;14312;52.614;13.496;2022-09-25T05:11:08;2.78;;;2.58;;
26696;SDS011;14312;52.614;13.496;2022-09-25T05:13:55;2.83;;;2.60;;
26696;SDS011;14312;52.614;13.496;2022-09-25T05:16:41;2.60;;;2.40;;
26696;SDS011;14312;52.614;13.496;2022-09-25T05:19:27;2.65;;;2.40;;
26696;SDS011;14312;52.614;13.496;2022-09-25T05:22:12;2.65;;;2.45;;
26696;SDS011;14312;52.614;13.496;2022-09-25T05:24:58;2.38;;;2.17;;
26696;SDS011;14312;52.614;13.496;2022-09-25T05:27:44;2.88;;;2.67;;
26696;SDS011;14312;52.614;13.496;2022-09-25T05:30:31;2.38;;;2.17;;
26696;SDS011;14312;52.614;13.496;2022-09-25T05:33:18;2.75;;;2.55;;
26696;SDS011;14312;52.614;13.496;2022-09-25T05:36:05;2.33;;;2.13;;
26696;SDS011;14312;52.614;13.496;2022-09-25T05:38:52;2.65;;;2.45;;
26696;SDS011;14312;52.614;13.496;2022-09-25T05:41:38;2.63;;;2.42;;
26696;SDS011;14312;52.614;13.496;2022-09-25T05:44:24;2.55;;;2.35;;
26696;SDS011;14312;52.614;13.496;2022-09-25T05:47:12;2.60;;;2.40;;
26696;SDS011;14312;52.614;13.496;2022-09-25T05:49:58;2.70;;;2.50;;
26696;SDS011;14312;52.614;13.496;2022-09-25T05:52:44;2.78;;;2.58;;
26696;SDS011;14312;52.614;13.496;2022-09-25T05:55:30;2.40;;;2.20;;
26696;SDS011;14312;52.614;13.496;2022-09-25T05:58:16;2.78;;;2.58;;
26696;SDS011;14312;52.614;13.496;2022-09-25T06:01:03;2.47;;;2.28;;
26696;SDS011;14312;52.614;13.496;2022-09-25T06:03:50;2.90;;;2.63;;
26696;SDS011;14312;52.614;13.496;2022-09-25T06:06:36;2.95;;;2.65;;
26696;SDS011;14312;52.614;13.496;2022-09-25T06:09:22;3.13;;;2.70;;
26696;SDS011;14312;52.614;13.496;2022-09-25T06:12:08;2.80;;;2.60;;
26696;SDS011;14312;52.614;13.496;2022-09-25T06:14:53;2.83;;;2.53;;
26696;SDS011;14312;52.614;13.496;2022-09-25T06:17:39;2.65;;;2.45;;
26696;SDS011;14312;52.614;13.496;2022-09-25T06:20:25;3.72;;;2.70;;
26696;SDS011;14312;52.614;13.496;2022-09-25T06:23:11;3.28;;;2.97;;
26696;SDS011;14312;52.614;13.496;2022-09-25T06:26:00;3.17;;;2.90;;
26696;SDS011;14312;52.614;13.496;2022-09-25T06:28:47;3.00;;;2.80;;
26696;SDS011;14312;52.614;13.496;2022-09-25T06:31:33;4.05;;;3.17;;
26696;SDS011;14312;52.614;13.496;2022-09-25T06:34:19;3.30;;;3.00;;
26696;SDS011;14312;52.614;13.496;2022-09-25T06:37:05;4.20;;;3.80;;
26696;SDS011;14312;52.614;13.496;2022-09-25T06:39:51;3.90;;;3.60;;
26696;SDS011;14312;52.614;13.496;2022-09-25T06:42:36;4.32;;;3.97;;
26696;SDS011;14312;52.614;13.496;2022-09-25T06:45:23;4.82;;;4.32;;
26696;SDS011;14312;52.614;13.496;2022-09-25T06:48:12;4.78;;;4.38;;
26696;SDS011;14312;52.614;13.496;2022-09-25T06:51:00;5.03;;;4.63;;
26696;SDS011;14312;52.614;13.496;2022-09-25T06:53:46;5.50;;;5.00;;
26696;SDS011;14312;52.614;13.496;2022-09-25T06:56:32;4.97;;;4.47;;
26696;SDS011;14312;52.614;13.496;2022-09-25T06:59:17;4.63;;;4.22;;
26696;SDS011;14312;52.614;13.496;2022-09-25T07:02:03;5.00;;;4.50;;
26696;SDS011;14312;52.614;13.496;2022-09-25T07:05:11;4.60;;;4.20;;
26696;SDS011;14312;52.614;13.496;2022-09-25T07:07:57;4.57;;;4.18;;
26696;SDS011;14312;52.614;13.496;2022-09-25T07:10:51;4.60;;;3.75;;
26696;SDS011;14312;52.614;13.496;2022-09-25T07:13:38;3.95;;;3.58;;
26696;SDS011;14312;52.614;13.496;2022-09-25T07:16:26;6.95;;;6.25;;
26696;SDS011;14312;52.614;13.496;2022-09-25T07:19:14;7.25;;;5.97;;
26696;SDS011;14312;52.614;13.496;2022-09-25T07:21:59;5.85;;;5.25;;
26696;SDS011;14312;52.614;13.496;2022-09-25T07:24:45;6.32;;;5.72;;
26696;SDS011;14312;52.614;13.496;2022-09-25T07:27:31;5.05;;;4.55;;
26696;SDS011;14312;52.614;13.496;2022-09-25T07:30:17;5.43;;;4.45;;
26696;SDS011;14312;52.614;13.496;2022-09-25T07:33:02;5.50;;;5.00;;
26696;SDS011;14312;52.614;13.496;2022-09-25T07:35:48;4.82;;;4.43;;
26696;SDS011;14312;52.614;13.496;2022-09-25T07:38:34;5.30;;;4.80;;
26696;SDS011;14312;52.614;13.496;2022-09-25T07:41:21;4.63;;;4.22;;
26696;SDS011;14312;52.614;13.496;2022-09-25T07:44:08;4.63;;;4.22;;
26696;SDS011;14312;52.614;13.496;2022-09-25T07:46:53;6.57;;;5.97;;
26696;SDS011;14312;52.614;13.496;2022-09-25T07:49:39;7.32;;;6.63;;
26696;SDS011;14312;52.614;13.496;2022-09-25T07:52:25;5.05;;;4.55;;
26696;SDS011;14312;52.614;13.496;2022-09-25T07:55:11;5.30;;;4.80;;
26696;SDS011;14312;52.614;13.496;2022-09-25T07:57:57;4.95;;;4.50;;
26696;SDS011;14312;52.614;13.496;2022-09-25T08:00:43;5.25;;;4.35;;
26696;SDS011;14312;52.614;13.496;2022-09-25T08:03:28;4.40;;;4.10;;
26696;SDS011;14312;52.614;13.496;2022-09-25T08:06:14;4.65;;;4.25;;
26696;SDS011;14312;52.614;13.496;2022-09-25T08:09:00;4.93;;;4.40;;
26696;SDS011;14312;52.614;13.496;2022-09-25T08:11:46;5.45;;;4.72;;
26696;SDS011;14312;52.614;13.496;2022-09-25T08:14:31;4.72;;;4.15;;
26696;SDS011;14312;52.614;13.496;2022-09-25T08:17:18;6.47;;;3.97;;
26696;SDS011;14312;52.614;13.496;2022-09-25T08:20:04;5.63;;;4.25;;
26696;SDS011;14312;52.614;13.496;2022-09-25T08:22:54;5.05;;;4.40;;
26696;SDS011;14312;52.614;13.496;2022-09-25T08:25:41;4.20;;;3.80;;
26696;SDS011;14312;52.614;13.496;2022-09-25T08:28:27;4.80;;;4.40;;
26696;SDS011;14312;52.614;13.496;2022-09-25T08:31:13;4.70;;;4.22;;
26696;SDS011;14312;52.614;13.496;2022-09-25T08:33:59;4.50;;;4.13;;
26696;SDS011;14312;52.614;13.496;2022-09-25T08:36:46;4.47;;;4.07;;
26696;SDS011;14312;52.614;13.496;2022-09-25T08:39:33;4.35;;;4.05;;
26696;SDS011;14312;52.614;13.496;2022-09-25T08:42:21;4.45;;;4.10;;
26696;SDS011;14312;52.614;13.496;2022-09-25T08:45:21;4.80;;;4.30;;
26696;SDS011;14312;52.614;13.496;2022-09-25T08:48:31;4.18;;;3.78;;
26696;SDS011;14312;52.614;13.496;2022-09-25T08:51:44;4.60;;;3.97;;
26696;SDS011;14312;52.614;13.496;2022-09-25T08:54:33;5.30;;;4.75;;
26696;SDS011;14312;52.614;13.496;2022-09-25T08:57:35;5.38;;;4.88;;
26696;SDS011;14312;52.614;13.496;2022-09-25T09:00:29;5.68;;;5.10;;
26696;SDS011;14312;52.614;13.496;2022-09-25T09:03:15;5.20;;;4.75;;
26696;SDS011;14312;52.614;13.496;2022-09-25T09:06:02;4.90;;;4.50;;
26696;SDS011;14312;52.614;13.496;2022-09-25T09:08:57;4.30;;;3.97;;
26696;SDS011;14312;52.614;13.496;2022-09-25T09:12:11;4.07;;;3.78;;
26696;SDS011;14312;52.614;13.496;2022-09-25T09:18:01;4.72;;;3.90;;
26696;SDS011;14312;52.614;13.496;2022-09-25T09:24:34;3.85;;;3.45;;
26696;SDS011;14312;52.614;13.496;2022-09-25T09:37:10;3.90;;;3.60;;
26696;SDS011;14312;52.614;13.496;2022-09-25T09:43:07;4.53;;;3.65;;
26696;SDS011;14312;52.614;13.496;2022-09-25T09:46:08;4.07;;;3.78;;
26696;SDS011;14312;52.614;13.496;2022-09-25T09:49:15;4.63;;;4.22;;
26696;SDS011;14312;52.614;13.496;2022-09-25T09:52:08;4.53;;;4.13;;
26696;SDS011;14312;52.614;13.496;2022-09-25T09:54:55;4.20;;;3.90;;
26696;SDS011;14312;52.614;13.496;2022-09-25T09:57:53;6.53;;;5.93;;
26696;SDS011;14312;52.614;13.496;2022-09-25T10:00:40;5.95;;;5.45;;
26696;SDS011;14312;52.614;13.496;2022-09-25T10:03:27;5.78;;;5.28;;
26696;SDS011;14312;52.614;13.496;2022-09-25T10:06:15;4.95;;;4.55;;
26696;SDS011;14312;52.614;13.496;2022-09-25T10:09:02;4.28;;;3.97;;
26696;SDS011;14312;52.614;13.496;2022-09-25T10:11:50;5.15;;;4.65;;
26696;SDS011;14312;52.614;13.496;2022-09-25T10:14:42;4.65;;;4.25;;
26696;SDS011;14312;52.614;13.496;2022-09-25T10:17:31;4.65;;;4.25;;
26696;SDS011;14312;52.614;13.496;2022-09-25T10:20:21;4.55;;;4.15;;
26696;SDS011;14312;52.614;13.496;2022-09-25T10:26:21;3.95;;;3.65;;
26696;SDS011;14312;52.614;13.496;2022-09-25T10:32:03;4.80;;;4.30;;
26696;SDS011;14312;52.614;13.496;2022-09-25T10:34:51;3.92;;;3.63;;
26696;SDS011;14312;52.614;13.496;2022-09-25T10:37:37;4.60;;;3.65;;
26696;SDS011;14312;52.614;13.496;2022-09-25T10:43:19;4.45;;;4.05;;
26696;SDS011;14312;52.614;13.496;2022-09-25T10:46:10;4.40;;;4.00;;
26696;SDS011;14312;52.614;13.496;2022-09-25T10:49:10;3.75;;;3.45;;
26696;SDS011;14312;52.614;13.496;2022-09-25T10:52:18;6.07;;;5.55;;
26696;SDS011;14312;52.614;13.496;2022-09-25T10:55:11;6.57;;;5.97;;
26696;SDS011;14312;52.614;13.496;2022-09-25T10:58:07;5.47;;;4.97;;
26696;SDS011;14312;52.614;13.496;2022-09-25T11:00:59;4.65;;;4.25;;
26696;SDS011;14312;52.614;13.496;2022-09-25T11:03:53;5.13;;;4.63;;
26696;SDS011;14312;52.614;13.496;2022-09-25T11:06:42;5.00;;;4.60;;
26696;SDS011;14312;52.614;13.496;2022-09-25T11:09:31;5.88;;;5.40;;
26696;SDS011;14312;52.614;13.496;2022-09-25T11:12:20;6.57;;;5.53;;
26696;SDS011;14312;52.614;13.496;2022-09-25T11:15:10;6.30;;;5.70;;
26696;SDS011;14312;52.614;13.496;2022-09-25T11:18:02;5.38;;;4.97;;
26696;SDS011;14312;52.614;13.496;2022-09-25T11:20:48;5.15;;;4.70;;
26696;SDS011;14312;52.614;13.496;2022-09-25T11:27:03;5.45;;;4.95;;
26696;SDS011;14312;52.614;13.496;2022-09-25T11:33:12;4.97;;;4.50;;
26696;SDS011;14312;52.614;13.496;2022-09-25T11:36:19;5.00;;;4.60;;
26696;SDS011;14312;52.614;13.496;2022-09-25T11:39:17;5.15;;;4.75;;
26696;SDS011;14312;52.614;13.496;2022-09-25T11:42:31;5.60;;;5.10;;
26696;SDS011;14312;52.614;13.496;2022-09-25T11:45:26;4.38;;;4.07;;
26696;SDS011;14312;52.614;13.496;2022-09-25T11:49:21;4.80;;;4.40;;
26696;SDS011;14312;52.614;13.496;2022-09-25T12:04:00;4.70;;;4.30;;
26696;SDS011;14312;52.614;13.496;2022-09-25T12:20:08;4.35;;;3.95;;
26696;SDS011;14312;52.614;13.496;2022-09-25T12:23:15;4.13;;;3.83;;
26696;SDS011;14312;52.614;13.496;2022-09-25T12:33:09;3.67;;;3.38;;
26696;SDS011;14312;52.614;13.496;2022-09-25T12:38:56;4.28;;;3.97;;
26696;SDS011;14312;52.614;13.496;2022-09-25T12:42:02;3.92;;;3.63;;
26696;SDS011;14312;52.614;13.496;2022-09-25T12:44:59;3.42;;;3.13;;
26696;SDS011;14312;52.614;13.496;2022-09-25T12:50:51;3.80;;;3.50;;
26696;SDS011;14312;52.614;13.496;2022-09-25T12:53:44;3.92;;;3.63;;
26696;SDS011;14312;52.614;13.496;2022-09-25T12:59:51;4.05;;;3.75;;
26696;SDS011;14312;52.614;13.496;2022-09-25T13:02:51;3.85;;;3.55;;
26696;SDS011;14312;52.614;13.496;2022-09-25T13:05:47;3.47;;;3.17;;
26696;SDS011;14312;52.614;13.496;2022-09-25T13:08:39;3.78;;;3.47;;
26696;SDS011;14312;52.614;13.496;2022-09-25T13:11:38;3.75;;;3.45;;
26696;SDS011;14312;52.614;13.496;2022-09-25T13:15:17;3.72;;;3.42;;
26696;SDS011;14312;52.614;13.496;2022-09-25T13:17:57;3.38;;;3.13;;
26696;SDS011;14312;52.614;13.496;2022-09-25T13:20:47;3.28;;;3.03;;
26696;SDS011;14312;52.614;13.496;2022-09-25T13:23:40;2.92;;;2.72;;
26696;SDS011;14312;52.614;13.496;2022-09-25T13:26:26;3.30;;;3.00;;
26696;SDS011;14312;52.614;13.496;2022-09-25T13:35:11;3.20;;;3.00;;
26696;SDS011;14312;52.614;13.496;2022-09-25T13:38:09;3.05;;;2.85;;
26696;SDS011;14312;52.614;13.496;2022-09-25T13:41:19;3.42;;;3.13;;
26696;SDS011;14312;52.614;13.496;2022-09-25T13:50:20;2.83;;;2.63;;
26696;SDS011;14312;52.614;13.496;2022-09-25T13:56:08;3.40;;;3.10;;
26696;SDS011;14312;52.614;13.496;2022-09-25T13:58:59;3.30;;;3.00;;
26696;SDS011;14312;52.614;13.496;2022-09-25T14:01:58;3.05;;;2.80;;
26696;SDS011;14312;52.614;13.496;2022-09-25T14:05:25;3.08;;;2.83;;
26696;SDS011;14312;52.614;13.496;2022-09-25T14:08:19;3.75;;;3.45;;
26696;SDS011;14312;52.614;13.496;2022-09-25T14:11:07;3.95;;;3.05;;
26696;SDS011;14312;52.614;13.496;2022-09-25T14:13:55;3.50;;;3.20;;
26696;SDS011;14312;52.614;13.496;2022-09-25T14:16:47;3.70;;;3.40;;
26696;SDS011;14312;52.614;13.496;2022-09-25T14:19:37;3.30;;;3.00;;
26696;SDS011;14312;52.614;13.496;2022-09-25T14:22:32;3.15;;;2.90;;
26696;SDS011;14312;52.614;13.496;2022-09-25T14:25:28;3.42;;;2.90;;
26696;SDS011;14312;52.614;13.496;2022-09-25T14:28:22;3.40;;;3.20;;
26696;SDS011;14312;52.614;13.496;2022-09-25T14:31:12;3.30;;;3.10;;
26696;SDS011;14312;52.614;13.496;2022-09-25T14:46:31;2.85;;;2.65;;
26696;SDS011;14312;52.614;13.496;2022-09-25T14:49:21;3.22;;;3.03;;
26696;SDS011;14312;52.614;13.496;2022-09-25T14:52:12;3.25;;;3.05;;
26696;SDS011;14312;52.614;13.496;2022-09-25T14:55:00;3.92;;;3.47;;
26696;SDS011;14312;52.614;13.496;2022-09-25T14:57:48;3.80;;;3.50;;
26696;SDS011;14312;52.614;13.496;2022-09-25T15:00:35;3.75;;;3.45;;
26696;SDS011;14312;52.614;13.496;2022-09-25T15:03:29;3.75;;;3.40;;
26696;SDS011;14312;52.614;13.496;2022-09-25T15:06:24;4.18;;;3.80;;
26696;SDS011;14312;52.614;13.496;2022-09-25T15:09:26;4.18;;;3.88;;
26696;SDS011;14312;52.614;13.496;2022-09-25T15:12:23;4.00;;;3.70;;
26696;SDS011;14312;52.614;13.496;2022-09-25T15:15:12;3.65;;;3.38;;
26696;SDS011;14312;52.614;13.496;2022-09-25T15:17:58;4.03;;;3.65;;
26696;SDS011;14312;52.614;13.496;2022-09-25T15:20:46;3.75;;;3.45;;
26696;SDS011;14312;52.614;13.496;2022-09-25T15:23:33;3.65;;;3.38;;
26696;SDS011;14312;52.614;13.496;2022-09-25T15:26:22;3.65;;;3.10;;
26696;SDS011;14312;52.614;13.496;2022-09-25T15:29:19;3.25;;;3.05;;
26696;SDS011;14312;52.614;13.496;2022-09-25T15:32:11;2.95;;;2.75;;
26696;SDS011;14312;52.614;13.496;2022-09-25T15:38:09;3.38;;;3.08;;
26696;SDS011;14312;52.614;13.496;2022-09-25T15:40:56;3.58;;;3.28;;
26696;SDS011;14312;52.614;13.496;2022-09-25T15:43:43;3.22;;;3.00;;
26696;SDS011;14312;52.614;13.496;2022-09-25T15:46:32;3.65;;;3.35;;
26696;SDS011;14312;52.614;13.496;2022-09-25T15:49:28;3.53;;;3.22;;
26696;SDS011;14312;52.614;13.496;2022-09-25T15:52:25;3.25;;;2.95;;
26696;SDS011;14312;52.614;13.496;2022-09-25T15:55:16;3.25;;;2.95;;
26696;SDS011;14312;52.614;13.496;2022-09-25T15:58:05;3.17;;;2.97;;
26696;SDS011;14312;52.614;13.496;2022-09-25T16:01:00;4.05;;;3.65;;
26696;SDS011;14312;52.614;13.496;2022-09-25T16:04:09;3.30;;;3.00;;
26696;SDS011;14312;52.614;13.496;2022-09-25T16:10:29;3.53;;;3.22;;
26696;SDS011;14312;52.614;13.496;2022-09-25T16:13:18;3.63;;;3.33;;
26696;SDS011;14312;52.614;13.496;2022-09-25T16:19:18;3.80;;;3.50;;
26696;SDS011;14312;52.614;13.496;2022-09-25T16:22:34;3.90;;;3.60;;
26696;SDS011;14312;52.614;13.496;2022-09-25T16:25:13;3.60;;;3.30;;
26696;SDS011;14312;52.614;13.496;2022-09-25T16:28:07;3.72;;;3.45;;
26696;SDS011;14312;52.614;13.496;2022-09-25T16:31:04;3.47;;;3.17;;
26696;SDS011;14312;52.614;13.496;2022-09-25T16:33:53;3.67;;;3.38;;
26696;SDS011;14312;52.614;13.496;2022-09-25T16:36:42;3.72;;;3.42;;
26696;SDS011;14312;52.614;13.496;2022-09-25T16:39:35;3.65;;;3.35;;
26696;SDS011;14312;52.614;13.496;2022-09-25T16:42:24;3.90;;;3.60;;
26696;SDS011;14312;52.614;13.496;2022-09-25T16:45:17;3.80;;;3.50;;
26696;SDS011;14312;52.614;13.496;2022-09-25T16:51:21;3.10;;;2.90;;
26696;SDS011;14312;52.614;13.496;2022-09-25T16:54:12;3.33;;;3.03;;
26696;SDS011;14312;52.614;13.496;2022-09-25T16:57:00;3.40;;;3.10;;
26696;SDS011;14312;52.614;13.496;2022-09-25T16:59:46;10.18;;;2.88;;
26696;SDS011;14312;52.614;13.496;2022-09-25T17:02:35;3.40;;;3.10;;
26696;SDS011;14312;52.614;13.496;2022-09-25T17:05:27;3.38;;;3.08;;
26696;SDS011;14312;52.614;13.496;2022-09-25T17:08:19;3.63;;;3.33;;
26696;SDS011;14312;52.614;13.496;2022-09-25T17:11:08;3.90;;;3.28;;
26696;SDS011;14312;52.614;13.496;2022-09-25T17:13:55;3.78;;;3.47;;
26696;SDS011;14312;52.614;13.496;2022-09-25T17:16:41;3.88;;;3.58;;
26696;SDS011;14312;52.614;13.496;2022-09-25T17:19:27;4.28;;;3.97;;
26696;SDS011;14312;52.614;13.496;2022-09-25T17:22:13;4.80;;;4.40;;
26696;SDS011;14312;52.614;13.496;2022-09-25T17:25:00;4.57;;;4.18;;
26696;SDS011;14312;52.614;13.496;2022-09-25T17:27:47;5.97;;;4.63;;
26696;SDS011;14312;52.614;13.496;2022-09-25T17:30:33;4.68;;;4.28;;
26696;SDS011;14312;52.614;13.496;2022-09-25T17:33:21;4.68;;;4.28;;
26696;SDS011;14312;52.614;13.496;2022-09-25T17:36:10;3.97;;;3.67;;
26696;SDS011;14312;52.614;13.496;2022-09-25T17:38:57;4.45;;;4.10;;
26696;SDS011;14312;52.614;13.496;2022-09-25T17:41:43;5.07;;;4.57;;
26696;SDS011;14312;52.614;13.496;2022-09-25T17:44:29;4.30;;;3.92;;
26696;SDS011;14312;52.614;13.496;2022-09-25T17:47:14;4.20;;;3.80;;
26696;SDS011;14312;52.614;13.496;2022-09-25T17:50:00;4.57;;;4.18;;
26696;SDS011;14312;52.614;13.496;2022-09-25T17:52:46;4.68;;;4.30;;
26696;SDS011;14312;52.614;13.496;2022-09-25T17:55:32;4.75;;;4.30;;
26696;SDS011;14312;52.614;13.496;2022-09-25T17:58:18;4.13;;;3.83;;
26696;SDS011;14312;52.614;13.496;2022-09-25T18:01:10;3.75;;;3.45;;
26696;SDS011;14312;52.614;13.496;2022-09-25T18:03:59;4.70;;;3.92;;
26696;SDS011;14312;52.614;13.496;2022-09-25T18:06:46;4.20;;;3.80;;
26696;SDS011;14312;52.614;13.496;2022-09-25T18:09:32;4.57;;;4.18;;
26696;SDS011;14312;52.614;13.496;2022-09-25T18:12:18;4.38;;;3.97;;
26696;SDS011;14312;52.614;13.496;2022-09-25T18:15:04;4.00;;;3.70;;
26696;SDS011;14312;52.614;13.496;2022-09-25T18:17:50;4.25;;;3.85;;
26696;SDS011;14312;52.614;13.496;2022-09-25T18:20:36;4.05;;;3.75;;
26696;SDS011;14312;52.614;13.496;2022-09-25T18:23:43;3.47;;;3.17;;
26696;SDS011;14312;52.614;13.496;2022-09-25T18:26:30;3.25;;;3.00;;
26696;SDS011;14312;52.614;13.496;2022-09-25T18:29:16;3.72;;;3.42;;
26696;SDS011;14312;52.614;13.496;2022-09-25T18:32:03;4.05;;;2.95;;
26696;SDS011;14312;52.614;13.496;2022-09-25T18:34:49;3.75;;;3.45;;
26696;SDS011;14312;52.614;13.496;2022-09-25T18:37:35;3.53;;;3.22;;
26696;SDS011;14312;52.614;13.496;2022-09-25T18:40:20;3.97;;;3.58;;
26696;SDS011;14312;52.614;13.496;2022-09-25T18:43:06;3.80;;;3.35;;
26696;SDS011;14312;52.614;13.496;2022-09-25T18:45:52;3.17;;;2.90;;
26696;SDS011;14312;52.614;13.496;2022-09-25T18:48:38;3.70;;;3.40;;
26696;SDS011;14312;52.614;13.496;2022-09-25T18:51:28;3.78;;;3.47;;
26696;SDS011;14312;52.614;13.496;2022-09-25T18:54:14;3.45;;;3.17;;
26696;SDS011;14312;52.614;13.496;2022-09-25T18:57:00;3.63;;;3.33;;
26696;SDS011;14312;52.614;13.496;2022-09-25T18:59:46;3.75;;;3.45;;
26696;SDS011;14312;52.614;13.496;2022-09-25T19:02:32;3.67;;;3.38;;
26696;SDS011;14312;52.614;13.496;2022-09-25T19:05:22;4.30;;;3.90;;
26696;SDS011;14312;52.614;13.496;2022-09-25T19:08:10;3.67;;;3.38;;
26696;SDS011;14312;52.614;13.496;2022-09-25T19:10:56;3.80;;;3.40;;
26696;SDS011;14312;52.614;13.496;2022-09-25T19:13:43;3.40;;;3.13;;
26696;SDS011;14312;52.614;13.496;2022-09-25T19:16:29;3.67;;;3.38;;